createdAt,value
2022-11-07T00:01:40.335Z,96440.41
2022-11-07T00:04:07.204Z,96443.19
2022-11-07T00:06:34.024Z,96449.81
2022-11-07T00:09:00.864Z,96450.53
2022-11-07T00:11:27.648Z,96454.56
2022-11-07T00:13:54.566Z,96456.13
2022-11-07T00:16:21.434Z,96465.84
2022-11-07T00:18:48.266Z,96461.72
2022-11-07T00:21:15.055Z,96468.38
2022-11-07T00:23:43.106Z,96468.31
2022-11-07T00:26:13.226Z,96468.66
2022-11-07T00:28:43.193Z,96470.78
2022-11-07T00:31:12.766Z,96474.16
2022-11-07T00:33:40.750Z,96470.66
2022-11-07T00:36:09.897Z,96478.31
2022-11-07T00:38:36.860Z,96474.69
2022-11-07T00:41:06.285Z,96483.56
2022-11-07T00:43:34.140Z,96488.44
2022-11-07T00:46:03.657Z,96481.16
2022-11-07T00:48:31.075Z,96492.38
2022-11-07T00:50:58.308Z,96484.09
2022-11-07T00:53:25.078Z,96493.06
2022-11-07T00:55:51.863Z,96495.91
2022-11-07T00:58:18.648Z,96490.28
2022-11-07T01:00:45.506Z,96501.94
2022-11-07T01:03:30.719Z,96499.16
2022-11-07T01:05:59.867Z,96501.72
2022-11-07T01:08:27.592Z,96503.16
2022-11-07T01:10:55.379Z,96499.91
2022-11-07T01:13:22.702Z,96507.81
2022-11-07T01:15:49.939Z,96513.53
2022-11-07T01:18:16.750Z,96511.91
2022-11-07T01:20:43.623Z,96514.31
2022-11-07T01:23:10.529Z,96517.16
2022-11-07T01:25:39.073Z,96513.91
2022-11-07T01:28:06.591Z,96519.50
2022-11-07T01:30:33.528Z,96526.78
2022-11-07T01:33:00.330Z,96526.78
2022-11-07T01:35:27.115Z,96529.59
2022-11-07T01:37:53.924Z,96525.22
2022-11-07T01:40:20.809Z,96523.41
2022-11-07T01:42:47.790Z,96526.91
2022-11-07T01:45:24.778Z,96522.00
2022-11-07T01:47:53.410Z,96527.28
2022-11-07T01:50:23.893Z,96535.38
2022-11-07T01:52:52.994Z,96531.41
2022-11-07T01:55:37.977Z,96537.06
2022-11-07T01:58:08.378Z,96536.25
2022-11-07T02:00:37.021Z,96539.88
2022-11-07T02:03:13.213Z,96537.50
2022-11-07T02:05:48.464Z,96536.88
2022-11-07T02:08:16.390Z,96542.47
2022-11-07T02:10:44.424Z,96530.81
2022-11-07T02:13:19.720Z,96531.13
2022-11-07T02:15:46.546Z,96537.38
2022-11-07T02:18:13.571Z,96534.47
2022-11-07T02:20:40.421Z,96540.00
2022-11-07T02:23:22.324Z,96532.47
2022-11-07T02:25:49.212Z,96521.47
2022-11-07T02:28:16.888Z,96526.91
2022-11-07T02:30:43.723Z,96524.50
2022-11-07T02:33:22.635Z,96522.09
2022-11-07T02:35:51.668Z,96525.75
2022-11-07T02:38:26.867Z,96523.94
2022-11-07T02:41:16.957Z,96509.97
2022-11-07T02:43:49.938Z,96504.72
2022-11-07T02:46:16.985Z,96517.22
2022-11-07T02:48:48.225Z,96512.75
2022-11-07T02:51:15.249Z,96519.69
2022-11-07T02:53:42.067Z,96521.88
2022-11-07T02:56:09.667Z,96512.75
2022-11-07T02:58:36.808Z,96511.75
2022-11-07T03:01:07.095Z,96517.59
2022-11-07T03:03:40.231Z,96523.91
2022-11-07T03:06:08.962Z,96520.41
2022-11-07T03:08:35.929Z,96533.72
2022-11-07T03:11:02.948Z,96528.00
2022-11-07T03:13:29.814Z,96527.44
2022-11-07T03:15:56.611Z,96532.00
2022-11-07T03:18:23.817Z,96532.91
2022-11-07T03:20:50.791Z,96538.16
2022-11-07T03:23:17.880Z,96546.06
2022-11-07T03:25:44.891Z,96539.56
2022-11-07T03:28:11.683Z,96542.78
2022-11-07T03:30:38.485Z,96545.56
2022-11-07T03:33:05.303Z,96548.19
2022-11-07T03:35:32.079Z,96547.91
2022-11-07T03:37:58.942Z,96548.19
2022-11-07T03:40:25.862Z,96554.78
2022-11-07T03:42:52.702Z,96559.69
2022-11-07T03:45:19.546Z,96552.41
2022-11-07T03:47:47.326Z,96554.13
2022-11-07T03:50:19.059Z,96552.66
2022-11-07T03:52:47.083Z,96555.56
2022-11-07T03:55:18.241Z,96553.16
2022-11-07T03:57:45.765Z,96557.91
2022-11-07T04:00:14.588Z,96564.44
2022-11-07T04:02:43.108Z,96564.44
2022-11-07T04:05:10.759Z,96567.25
2022-11-07T04:07:37.658Z,96562.69
2022-11-07T04:10:04.940Z,96567.53
2022-11-07T04:12:50.302Z,96565.81
2022-11-07T04:15:35.472Z,96558.16
2022-11-07T04:18:02.424Z,96572.19
2022-11-07T04:20:29.637Z,96568.91
2022-11-07T04:22:56.464Z,96565.69
2022-11-07T04:25:43.215Z,96567.66
2022-11-07T04:28:10.045Z,96574.91
2022-11-07T04:30:36.810Z,96574.41
2022-11-07T04:33:03.696Z,96582.03
2022-11-07T04:35:33.387Z,96586.22
2022-11-07T04:38:01.043Z,96589.19
2022-11-07T04:40:29.000Z,96585.94
2022-11-07T04:42:56.077Z,96592.81
2022-11-07T04:45:23.283Z,96587.94
2022-11-07T04:47:50.110Z,96589.75
2022-11-07T04:50:20.075Z,96590.75
2022-11-07T04:52:47.752Z,96594.75
2022-11-07T04:55:22.965Z,96592.84
2022-11-07T04:57:49.869Z,96579.34
2022-11-07T05:00:18.563Z,96587.59
2022-11-07T05:02:46.434Z,96588.94
2022-11-07T05:05:13.268Z,96583.06
2022-11-07T05:07:40.535Z,96584.91
2022-11-07T05:10:12.311Z,96583.69
2022-11-07T05:12:39.334Z,96578.09
2022-11-07T05:15:07.567Z,96584.59
2022-11-07T05:17:34.361Z,96572.84
2022-11-07T05:20:01.136Z,96581.25
2022-11-07T05:22:46.216Z,96593.56
2022-11-07T05:25:12.988Z,96592.94
2022-11-07T05:27:39.810Z,96602.16
2022-11-07T05:30:07.376Z,96590.97
2022-11-07T05:32:38.077Z,96593.03
2022-11-07T05:35:06.014Z,96606.16
2022-11-07T05:37:32.896Z,96611.63
2022-11-07T05:39:59.766Z,96611.88
2022-11-07T05:42:26.551Z,96619.44
2022-11-07T05:44:53.379Z,96624.13
2022-11-07T05:47:20.154Z,96627.47
2022-11-07T05:49:46.944Z,96622.28
2022-11-07T05:52:13.716Z,96626.25
2022-11-07T05:54:40.539Z,96629.41
2022-11-07T05:57:07.343Z,96632.53
2022-11-07T05:59:34.140Z,96634.88
2022-11-07T06:02:00.992Z,96641.09
2022-11-07T06:04:27.820Z,96644.53
2022-11-07T06:06:54.625Z,96649.75
2022-11-07T06:09:21.401Z,96649.59
2022-11-07T06:11:48.187Z,96643.72
2022-11-07T06:14:14.992Z,96652.56
2022-11-07T06:16:41.793Z,96641.75
2022-11-07T06:19:08.570Z,96644.31
2022-11-07T06:21:35.457Z,96642.19
2022-11-07T06:24:03.382Z,96657.75
2022-11-07T06:26:30.312Z,96654.78
2022-11-07T06:28:57.096Z,96660.03
2022-11-07T06:31:23.870Z,96652.44
2022-11-07T06:33:51.575Z,96666.75
2022-11-07T06:36:18.830Z,96664.53
2022-11-07T06:38:45.747Z,96668.34
2022-11-07T06:41:14.541Z,96663.59
2022-11-07T06:43:41.700Z,96671.25
2022-11-07T06:46:13.434Z,96663.09
2022-11-07T06:48:40.632Z,96666.91
2022-11-07T06:51:09.811Z,96670.47
2022-11-07T06:53:37.053Z,96682.06
2022-11-07T06:56:07.047Z,96673.06
2022-11-07T06:58:34.632Z,96676.50
2022-11-07T07:01:06.618Z,96681.84
2022-11-07T07:03:33.466Z,96671.84
2022-11-07T07:06:02.863Z,96680.91
2022-11-07T07:08:30.183Z,96678.06
2022-11-07T07:10:57.322Z,96699.44
2022-11-07T07:13:24.196Z,96690.44
2022-11-07T07:15:55.809Z,96689.56
2022-11-07T07:18:23.899Z,96696.50
2022-11-07T07:20:51.785Z,96697.56
2022-11-07T07:23:20.803Z,96696.66
2022-11-07T07:25:48.329Z,96697.56
2022-11-07T07:28:15.144Z,96698.84
2022-11-07T07:30:43.884Z,96693.13
2022-11-07T07:33:14.433Z,96685.91
2022-11-07T07:35:41.491Z,96691.69
2022-11-07T07:38:08.282Z,96688.13
2022-11-07T07:40:35.070Z,96695.47
2022-11-07T07:43:01.850Z,96702.63
2022-11-07T07:45:28.662Z,96698.25
2022-11-07T07:48:02.284Z,96699.09
2022-11-07T07:50:29.408Z,96705.06
2022-11-07T07:52:57.861Z,96702.53
2022-11-07T07:55:25.439Z,96704.06
2022-11-07T07:57:52.260Z,96698.50
2022-11-07T08:00:19.451Z,96696.88
2022-11-07T08:02:46.267Z,96688.56
2022-11-07T08:05:14.893Z,96687.88
2022-11-07T08:07:49.916Z,96698.28
2022-11-07T08:13:05.791Z,96701.88
2022-11-07T08:15:32.657Z,96692.44
2022-11-07T08:18:04.222Z,96693.50
2022-11-07T08:20:31.528Z,96690.63
2022-11-07T08:23:12.878Z,96687.94
2022-11-07T08:25:49.475Z,96686.72
2022-11-07T08:28:16.285Z,96687.84
2022-11-07T08:30:43.061Z,96696.94
2022-11-07T08:33:09.923Z,96697.13
2022-11-07T08:35:42.107Z,96701.84
2022-11-07T08:38:09.618Z,96706.56
2022-11-07T08:40:36.484Z,96702.94
2022-11-07T08:43:03.251Z,96705.19
2022-11-07T08:45:30.068Z,96709.72
2022-11-07T08:48:00.799Z,96700.31
2022-11-07T08:50:27.939Z,96710.78
2022-11-07T08:53:01.233Z,96705.34
2022-11-07T08:55:29.530Z,96709.47
2022-11-07T08:58:01.316Z,96708.81
2022-11-07T09:00:28.851Z,96699.72
2022-11-07T09:05:42.417Z,96704.47
2022-11-07T09:08:09.211Z,96702.69
2022-11-07T09:10:35.988Z,96700.97
2022-11-07T09:13:02.838Z,96712.53
2022-11-07T09:15:29.656Z,96702.22
2022-11-07T09:18:02.399Z,96705.09
2022-11-07T09:20:29.175Z,96710.09
2022-11-07T09:22:57.573Z,96707.81
2022-11-07T09:25:24.415Z,96705.31
2022-11-07T09:27:54.461Z,96705.84
2022-11-07T09:30:22.187Z,96710.41
2022-11-07T09:32:48.973Z,96699.97
2022-11-07T09:35:15.798Z,96712.13
2022-11-07T09:37:42.799Z,96708.34
2022-11-07T09:40:43.776Z,96703.69
2022-11-07T09:43:50.590Z,96706.91
2022-11-07T09:46:29.276Z,96703.47
2022-11-07T09:49:25.601Z,96708.16
2022-11-07T09:52:26.419Z,96698.50
2022-11-07T09:55:09.190Z,96714.38
2022-11-07T09:57:37.720Z,96707.41
2022-11-07T10:00:15.423Z,96703.13
2022-11-07T10:02:56.871Z,96694.56
2022-11-07T10:05:54.344Z,96701.16
2022-11-07T10:08:28.146Z,96696.72
2022-11-07T10:11:09.211Z,96695.63
2022-11-07T10:13:48.173Z,96691.34
2022-11-07T10:16:51.788Z,96698.84
2022-11-07T10:19:44.699Z,96694.22
2022-11-07T10:22:29.475Z,96703.78
2022-11-07T10:25:14.643Z,96699.16
2022-11-07T10:27:41.424Z,96704.91
2022-11-07T10:30:19.265Z,96698.16
2022-11-07T10:33:06.837Z,96695.63
2022-11-07T10:35:38.075Z,96686.22
2022-11-07T10:38:24.979Z,96691.53
2022-11-07T10:40:52.308Z,96693.19
2022-11-07T10:43:33.898Z,96679.53
2022-11-07T10:46:22.631Z,96697.06
2022-11-07T10:48:57.580Z,96681.91
2022-11-07T10:51:40.502Z,96698.31
2022-11-07T10:54:22.280Z,96686.75
2022-11-07T10:57:13.774Z,96683.25
2022-11-07T10:59:55.963Z,96686.38
2022-11-07T11:02:28.689Z,96682.19
2022-11-07T11:05:00.303Z,96687.28
2022-11-07T11:07:36.667Z,96687.38
2022-11-07T11:10:18.997Z,96692.88
2022-11-07T11:12:48.066Z,96674.44
2022-11-07T11:15:19.226Z,96672.25
2022-11-07T11:17:46.957Z,96675.91
2022-11-07T11:20:40.454Z,96681.41
2022-11-07T11:23:19.723Z,96688.56
2022-11-07T11:25:50.159Z,96676.56
2022-11-07T11:28:35.919Z,96678.53
2022-11-07T11:31:22.235Z,96681.53
2022-11-07T11:33:59.143Z,96672.00
2022-11-07T11:36:31.920Z,96661.88
2022-11-07T11:39:03.028Z,96662.19
2022-11-07T11:41:48.391Z,96659.84
2022-11-07T11:44:26.045Z,96649.69
2022-11-07T11:47:08.284Z,96647.06
2022-11-07T11:49:54.524Z,96641.66
2022-11-07T11:52:24.076Z,96638.59
2022-11-07T11:54:53.766Z,96637.47
2022-11-07T11:57:42.723Z,96640.53
2022-11-07T12:00:21.648Z,96630.28
2022-11-07T12:03:06.152Z,96633.69
2022-11-07T12:06:23.326Z,96634.31
2022-11-07T12:09:17.297Z,96633.25
2022-11-07T12:12:26.101Z,96638.19
2022-11-07T12:15:03.606Z,96623.66
2022-11-07T12:17:52.694Z,96622.91
2022-11-07T12:20:34.145Z,96618.38
2022-11-07T12:23:46.064Z,96606.63
2022-11-07T12:26:34.764Z,96623.44
2022-11-07T12:29:48.210Z,96611.50
2022-11-07T12:32:45.011Z,96606.63
2022-11-07T12:35:35.293Z,96600.94
2022-11-07T12:38:15.984Z,96595.03
2022-11-07T12:41:08.713Z,96605.03
2022-11-07T12:44:04.744Z,96605.56
2022-11-07T12:47:26.648Z,96604.88
2022-11-07T12:50:02.159Z,96600.19
2022-11-07T12:52:46.124Z,96587.31
2022-11-07T12:55:40.088Z,96599.63
2022-11-07T12:58:19.971Z,96595.78
2022-11-07T13:00:47.560Z,96593.16
2022-11-07T13:03:25.135Z,96596.91
2022-11-07T13:06:09.134Z,96591.53
2022-11-07T13:08:47.984Z,96597.38
2022-11-07T13:11:27.912Z,96589.91
2022-11-07T13:14:33.150Z,96583.03
2022-11-07T13:17:27.560Z,96597.38
2022-11-07T13:20:22.805Z,96603.53
2022-11-07T13:22:52.994Z,96604.25
2022-11-07T13:25:31.840Z,96598.69
2022-11-07T13:27:58.577Z,96607.53
2022-11-07T13:30:31.157Z,96610.09
2022-11-07T13:32:59.556Z,96616.41
2022-11-07T13:35:28.705Z,96615.16
2022-11-07T13:38:15.568Z,96612.63
2022-11-07T13:41:05.058Z,96599.03
2022-11-07T13:43:56.378Z,96602.03
2022-11-07T13:46:39.431Z,96607.56
2022-11-07T13:49:16.706Z,96605.09
2022-11-07T13:51:48.702Z,96605.75
2022-11-07T13:54:31.324Z,96611.75
2022-11-07T13:57:19.596Z,96611.72
2022-11-07T14:00:05.519Z,96615.06
2022-11-07T14:02:34.790Z,96622.69
2022-11-07T14:05:18.702Z,96620.47
2022-11-07T14:07:59.835Z,96624.09
2022-11-07T14:10:40.266Z,96620.75
2022-11-07T14:13:27.899Z,96615.47
2022-11-07T14:16:02.468Z,96623.38
2022-11-07T14:18:34.166Z,96624.31
2022-11-07T14:21:01.453Z,96612.81
2022-11-07T14:23:32.465Z,96612.66
2022-11-07T14:26:01.888Z,96622.31
2022-11-07T14:28:37.848Z,96613.69
2022-11-07T14:31:16.788Z,96615.50
2022-11-07T14:33:59.553Z,96624.09
2022-11-07T14:36:27.300Z,96620.50
2022-11-07T14:39:11.387Z,96618.09
2022-11-07T14:41:43.731Z,96615.69
2022-11-07T14:44:28.483Z,96627.88
2022-11-07T14:47:04.308Z,96616.09
2022-11-07T14:49:43.507Z,96614.97
2022-11-07T14:52:26.483Z,96615.63
2022-11-07T14:55:01.616Z,96625.53
2022-11-07T14:57:28.807Z,96623.84
2022-11-07T14:59:55.952Z,96626.47
2022-11-07T15:02:32.217Z,96613.78
2022-11-07T15:05:06.826Z,96622.06
2022-11-07T15:07:48.388Z,96618.69
2022-11-07T15:10:35.445Z,96631.94
2022-11-07T15:13:06.363Z,96620.13
2022-11-07T15:15:35.847Z,96625.44
2022-11-07T15:18:05.834Z,96618.09
2022-11-07T15:20:34.382Z,96629.72
2022-11-07T15:23:13.502Z,96620.13
2022-11-07T15:25:51.737Z,96621.56
2022-11-07T15:28:18.958Z,96620.88
2022-11-07T15:30:47.121Z,96623.78
2022-11-07T15:33:19.157Z,96625.78
2022-11-07T15:35:48.327Z,96632.81
2022-11-07T15:38:23.201Z,96620.03
2022-11-07T15:40:51.472Z,96630.69
2022-11-07T15:43:18.875Z,96628.16
2022-11-07T15:45:46.904Z,96630.28
2022-11-07T15:48:21.346Z,96628.59
2022-11-07T15:50:49.705Z,96628.00
2022-11-07T15:53:26.608Z,96626.06
2022-11-07T15:56:01.643Z,96634.31
2022-11-07T15:58:30.120Z,96631.94
2022-11-07T16:00:58.807Z,96630.97
2022-11-07T16:03:27.956Z,96642.56
2022-11-07T16:06:01.505Z,96634.47
2022-11-07T16:08:30.130Z,96630.81
2022-11-07T16:11:02.461Z,96641.97
2022-11-07T16:13:29.772Z,96640.53
2022-11-07T16:16:00.708Z,96642.75
2022-11-07T16:18:27.889Z,96642.56
2022-11-07T16:20:54.664Z,96637.09
2022-11-07T16:23:21.641Z,96642.97
2022-11-07T16:25:50.886Z,96644.59
2022-11-07T16:28:29.648Z,96639.31
2022-11-07T16:30:56.805Z,96647.81
2022-11-07T16:33:25.061Z,96646.41
2022-11-07T16:35:55.721Z,96650.84
2022-11-07T16:38:24.898Z,96645.75
2022-11-07T16:40:52.541Z,96651.03
2022-11-07T16:43:20.169Z,96655.66
2022-11-07T16:45:50.928Z,96645.25
2022-11-07T16:48:24.876Z,96651.66
2022-11-07T16:50:53.018Z,96653.84
2022-11-07T16:53:21.174Z,96657.25
2022-11-07T16:55:53.585Z,96649.53
2022-11-07T16:58:29.032Z,96641.84
2022-11-07T17:00:59.714Z,96647.09
2022-11-07T17:03:27.014Z,96654.78
2022-11-07T17:05:56.434Z,96653.78
2022-11-07T17:08:27.192Z,96647.50
2022-11-07T17:10:54.827Z,96645.88
2022-11-07T17:13:23.045Z,96648.72
2022-11-07T17:15:51.084Z,96650.78
2022-11-07T17:18:25.536Z,96648.72
2022-11-07T17:20:55.746Z,96649.13
2022-11-07T17:23:29.682Z,96653.59
2022-11-07T17:26:00.067Z,96653.97
2022-11-07T17:28:26.922Z,96646.22
2022-11-07T17:30:53.726Z,96652.69
2022-11-07T17:33:20.525Z,96650.22
2022-11-07T17:35:55.591Z,96659.03
2022-11-07T17:38:22.354Z,96658.16
2022-11-07T17:40:49.147Z,96662.09
2022-11-07T17:43:15.924Z,96658.84
2022-11-07T17:45:42.769Z,96653.50
2022-11-07T17:48:10.914Z,96660.75
2022-11-07T17:50:38.017Z,96654.25
2022-11-07T17:53:04.817Z,96648.75
2022-11-07T17:55:31.591Z,96648.97
2022-11-07T17:57:58.406Z,96645.13
2022-11-07T18:00:27.331Z,96651.38
2022-11-07T18:02:54.287Z,96654.41
2022-11-07T18:05:24.712Z,96647.63
2022-11-07T18:07:53.695Z,96651.19
2022-11-07T18:10:20.472Z,96658.00
2022-11-07T18:12:47.377Z,96653.50
2022-11-07T18:15:14.305Z,96650.97
2022-11-07T18:17:41.493Z,96653.00
2022-11-07T18:20:10.095Z,96634.38
2022-11-07T18:22:37.611Z,96638.34
2022-11-07T18:25:06.699Z,96626.59
2022-11-07T18:27:34.457Z,96631.84
2022-11-07T18:30:02.895Z,96624.53
2022-11-07T18:32:35.721Z,96628.91
2022-11-07T18:35:06.135Z,96633.69
2022-11-07T18:37:33.703Z,96636.50
2022-11-07T18:40:00.493Z,96640.59
2022-11-07T18:42:29.030Z,96633.69
2022-11-07T18:44:55.966Z,96640.50
2022-11-07T18:47:22.932Z,96637.25
2022-11-07T18:49:54.181Z,96638.06
2022-11-07T18:52:24.121Z,96629.94
2022-11-07T18:54:51.451Z,96645.34
2022-11-07T18:57:18.271Z,96629.13
2022-11-07T18:59:45.902Z,96637.81
2022-11-07T19:02:12.899Z,96633.56
2022-11-07T19:04:40.006Z,96635.19
2022-11-07T19:07:06.809Z,96640.19
2022-11-07T19:09:33.933Z,96634.13
2022-11-07T19:12:01.359Z,96628.16
2022-11-07T19:14:29.787Z,96632.31
2022-11-07T19:16:57.460Z,96640.84
2022-11-07T19:19:24.404Z,96634.72
2022-11-07T19:21:51.230Z,96638.63
2022-11-07T19:24:18.431Z,96638.88
2022-11-07T19:26:45.695Z,96638.69
2022-11-07T19:29:12.616Z,96643.25
2022-11-07T19:31:39.446Z,96641.59
2022-11-07T19:34:06.944Z,96652.44
2022-11-07T19:36:34.126Z,96647.91
2022-11-07T19:39:02.992Z,96649.00
2022-11-07T19:41:30.090Z,96657.75
2022-11-07T19:43:59.112Z,96654.88
2022-11-07T19:46:26.099Z,96654.25
2022-11-07T19:48:54.954Z,96654.63
2022-11-07T19:51:23.097Z,96654.53
2022-11-07T19:53:56.313Z,96648.88
2022-11-07T19:56:25.999Z,96650.59
2022-11-07T19:58:52.955Z,96649.06
2022-11-07T20:01:26.538Z,96652.56
2022-11-07T20:03:54.693Z,96656.97
2022-11-07T20:06:32.185Z,96643.41
2022-11-07T20:09:00.787Z,96654.31
2022-11-07T20:11:28.698Z,96655.56
2022-11-07T20:14:02.727Z,96662.00
2022-11-07T20:16:30.493Z,96662.66
2022-11-07T20:18:57.567Z,96660.66
2022-11-07T20:21:25.590Z,96662.28
2022-11-07T20:23:57.043Z,96658.03
2022-11-07T20:26:27.459Z,96652.91
2022-11-07T20:28:54.445Z,96658.47
2022-11-07T20:31:26.067Z,96657.75
2022-11-07T20:33:55.230Z,96665.47
2022-11-07T20:36:23.003Z,96662.66
2022-11-07T20:38:50.374Z,96667.91
2022-11-07T20:41:18.085Z,96664.56
2022-11-07T20:43:44.950Z,96659.22
2022-11-07T20:46:14.974Z,96661.88
2022-11-07T20:48:42.476Z,96661.06
2022-11-07T20:51:12.385Z,96663.84
2022-11-07T20:53:39.939Z,96669.31
2022-11-07T20:56:08.298Z,96669.38
2022-11-07T20:58:38.420Z,96666.84
2022-11-07T21:01:08.166Z,96663.59
2022-11-07T21:03:35.529Z,96667.19
2022-11-07T21:06:02.380Z,96669.16
2022-11-07T21:08:33.169Z,96671.47
2022-11-07T21:11:02.884Z,96675.44
2022-11-07T21:13:29.686Z,96668.41
2022-11-07T21:15:56.463Z,96675.44
2022-11-07T21:18:23.282Z,96671.19
2022-11-07T21:20:50.436Z,96668.13
2022-11-07T21:23:17.637Z,96667.97
2022-11-07T21:25:48.288Z,96668.28
2022-11-07T21:28:17.769Z,96670.25
2022-11-07T21:30:46.228Z,96668.50
2022-11-07T21:33:13.143Z,96671.28
2022-11-07T21:35:42.820Z,96674.88
2022-11-07T21:38:09.641Z,96671.97
2022-11-07T21:40:36.810Z,96677.19
2022-11-07T21:43:03.576Z,96669.66
2022-11-07T21:45:30.394Z,96674.88
2022-11-07T21:47:57.165Z,96695.00
2022-11-07T21:50:43.813Z,96684.66
2022-11-07T21:53:10.695Z,96679.44
2022-11-07T21:55:37.464Z,96678.97
2022-11-07T21:58:04.263Z,96669.28
2022-11-07T22:00:35.821Z,96675.69
2022-11-07T22:03:04.548Z,96675.88
2022-11-07T22:05:31.450Z,96672.28
2022-11-07T22:07:58.321Z,96679.16
2022-11-07T22:10:25.175Z,96681.91
2022-11-07T22:12:52.756Z,96683.38
2022-11-07T22:15:19.593Z,96675.19
2022-11-07T22:17:46.416Z,96680.78
2022-11-07T22:20:13.223Z,96676.22
2022-11-07T22:22:40.360Z,96680.09
2022-11-07T22:25:07.600Z,96683.88
2022-11-07T22:27:34.412Z,96674.91
2022-11-07T22:30:01.192Z,96671.69
2022-11-07T22:32:27.979Z,96667.94
2022-11-07T22:34:54.772Z,96672.34
2022-11-07T22:37:21.628Z,96667.44
2022-11-07T22:39:48.391Z,96658.63
2022-11-07T22:42:19.623Z,96666.63
2022-11-07T22:44:49.462Z,96655.69
2022-11-07T22:47:16.250Z,96663.25
2022-11-07T22:49:43.013Z,96665.19
2022-11-07T22:52:09.822Z,96658.69
2022-11-07T22:54:36.800Z,96661.59
2022-11-07T22:57:04.057Z,96662.91
2022-11-07T22:59:31.237Z,96669.78
2022-11-07T23:01:58.146Z,96668.19
2022-11-07T23:04:29.975Z,96664.25
2022-11-07T23:06:59.389Z,96652.50
2022-11-07T23:09:26.170Z,96651.19
2022-11-07T23:11:52.962Z,96656.25
2022-11-07T23:14:21.474Z,96660.19
2022-11-07T23:16:51.849Z,96660.00
2022-11-07T23:19:22.358Z,96660.16
2022-11-07T23:21:51.354Z,96655.44
2022-11-07T23:24:18.362Z,96654.94
2022-11-07T23:26:45.239Z,96651.53
2022-11-07T23:29:20.166Z,96639.75
2022-11-07T23:31:49.681Z,96649.91
2022-11-07T23:34:18.704Z,96646.63
2022-11-07T23:36:45.641Z,96644.97
2022-11-07T23:39:19.878Z,96639.75
2022-11-07T23:41:47.056Z,96642.53
2022-11-07T23:44:15.214Z,96634.88
2022-11-07T23:47:01.526Z,96649.91
2022-11-07T23:49:47.656Z,96653.16
2022-11-07T23:52:14.436Z,96649.91
2022-11-07T23:54:59.949Z,96647.59
2022-11-07T23:57:26.787Z,96644.00
